createdAt,value
2018-03-27T00:00:26.096Z,35.93
2018-03-27T00:02:54.234Z,36.93
2018-03-27T00:05:24.983Z,35.30
2018-03-27T00:20:52.420Z,36.57
2018-03-27T00:23:21.870Z,40.03
2018-03-27T00:25:54.225Z,37.60
2018-03-27T00:28:39.983Z,39.23
2018-03-27T00:31:25.963Z,39.30
2018-03-27T00:34:12.242Z,41.90
2018-03-27T00:36:58.006Z,37.33
2018-03-27T00:39:44.564Z,37.63
2018-03-27T00:45:44.974Z,40.03
2018-03-27T00:48:13.112Z,42.87
2018-03-27T00:50:41.235Z,40.87
2018-03-27T00:53:09.659Z,37.47
2018-03-27T00:55:38.602Z,40.13
2018-03-27T00:58:06.874Z,40.03
2018-03-27T01:00:35.002Z,39.97
2018-03-27T01:03:03.097Z,39.03
2018-03-27T01:05:31.663Z,40.57
2018-03-27T01:08:00.488Z,40.87
2018-03-27T01:10:29.507Z,39.40
2018-03-27T01:12:57.695Z,39.57
2018-03-27T01:15:26.629Z,37.33
2018-03-27T01:17:55.364Z,38.33
2018-03-27T01:20:23.649Z,37.17
2018-03-27T01:22:56.001Z,35.17
2018-03-27T01:25:24.182Z,38.23
2018-03-27T01:27:52.323Z,41.67
2018-03-27T01:30:20.515Z,39.60
2018-03-27T01:32:48.715Z,37.87
2018-03-27T01:35:19.441Z,36.20
2018-03-27T01:37:51.453Z,38.07
2018-03-27T01:40:24.530Z,36.87
2018-03-27T01:42:52.672Z,38.03
2018-03-27T01:45:24.842Z,41.00
2018-03-27T01:47:52.998Z,39.50
2018-03-27T01:50:21.968Z,39.10
2018-03-27T01:52:50.840Z,36.87
2018-03-27T01:55:19.738Z,34.93
2018-03-27T01:57:47.932Z,37.20
2018-03-27T02:00:16.190Z,36.20
2018-03-27T02:02:44.364Z,35.80
2018-03-27T02:05:12.649Z,34.67
2018-03-27T02:07:40.805Z,39.97
2018-03-27T02:10:08.998Z,36.40
2018-03-27T02:12:42.648Z,40.73
2018-03-27T02:15:16.338Z,37.33
2018-03-27T02:17:53.741Z,33.97
2018-03-27T02:20:27.260Z,35.13
2018-03-27T02:22:59.342Z,35.30
2018-03-27T02:25:31.709Z,37.33
2018-03-27T02:27:59.940Z,36.10
2018-03-27T02:30:28.196Z,37.27
2018-03-27T02:32:59.076Z,35.27
2018-03-27T02:35:27.189Z,35.33
2018-03-27T02:37:56.223Z,34.57
2018-03-27T02:40:24.846Z,36.53
2018-03-27T02:42:52.957Z,40.17
2018-03-27T02:45:21.095Z,39.00
2018-03-27T02:47:49.217Z,37.47
2018-03-27T02:50:17.403Z,40.53
2018-03-27T02:52:45.538Z,41.33
2018-03-27T02:55:13.661Z,38.40
2018-03-27T02:57:41.777Z,37.30
2018-03-27T03:00:09.908Z,36.83
2018-03-27T03:02:38.104Z,38.33
2018-03-27T03:05:06.940Z,38.43
2018-03-27T03:07:35.110Z,39.67
2018-03-27T03:10:03.266Z,40.47
2018-03-27T03:12:33.504Z,43.47
2018-03-27T03:15:06.429Z,36.33
2018-03-27T03:17:38.431Z,39.50
2018-03-27T03:20:07.070Z,37.97
2018-03-27T03:22:35.932Z,40.03
2018-03-27T03:25:04.855Z,39.50
2018-03-27T03:27:33.026Z,38.47
2018-03-27T03:30:01.192Z,39.60
2018-03-27T03:32:29.912Z,42.03
2018-03-27T03:35:02.373Z,40.73
2018-03-27T03:37:30.577Z,40.83
2018-03-27T03:39:58.716Z,42.03
2018-03-27T03:42:27.056Z,42.33
2018-03-27T03:44:55.172Z,41.40
2018-03-27T03:47:24.537Z,42.47
2018-03-27T03:49:53.562Z,42.10
2018-03-27T03:52:21.807Z,41.83
2018-03-27T03:54:50.090Z,42.43
2018-03-27T03:57:29.522Z,44.37
2018-03-27T03:59:58.456Z,44.73
2018-03-27T04:02:26.560Z,44.67
2018-03-27T04:04:54.722Z,43.43
2018-03-27T04:07:26.480Z,42.73
2018-03-27T04:09:54.619Z,45.47
2018-03-27T04:12:22.741Z,41.90
2018-03-27T04:14:55.214Z,43.33
2018-03-27T04:17:23.383Z,44.67
2018-03-27T04:19:52.357Z,42.33
2018-03-27T04:22:20.583Z,42.23
2018-03-27T04:24:50.149Z,42.33
2018-03-27T04:27:18.462Z,43.47
2018-03-27T04:29:47.617Z,39.63
2018-03-27T04:32:16.519Z,40.17
2018-03-27T04:34:44.641Z,39.63
2018-03-27T04:37:16.602Z,41.53
2018-03-27T04:39:45.449Z,39.83
2018-03-27T04:42:13.557Z,40.83
2018-03-27T04:44:41.753Z,41.07
2018-03-27T04:47:11.610Z,41.07
2018-03-27T04:49:43.760Z,38.23
2018-03-27T04:52:16.099Z,40.17
2018-03-27T04:54:44.278Z,40.83
2018-03-27T04:57:12.392Z,40.53
2018-03-27T04:59:40.525Z,42.03
2018-03-27T05:02:08.649Z,44.40
2018-03-27T05:04:37.012Z,43.43
2018-03-27T05:07:05.563Z,43.70
2018-03-27T05:09:34.150Z,44.40
2018-03-27T05:12:02.466Z,41.87
2018-03-27T05:14:31.463Z,45.97
2018-03-27T05:17:00.848Z,44.13
2018-03-27T05:19:29.030Z,44.13
2018-03-27T05:21:57.508Z,48.97
2018-03-27T05:24:25.748Z,52.60
2018-03-27T05:26:54.413Z,45.73
2018-03-27T05:29:23.379Z,44.70
2018-03-27T05:31:52.038Z,47.17
2018-03-27T05:34:20.458Z,46.23
2018-03-27T05:36:48.640Z,46.37
2018-03-27T05:39:16.751Z,45.83
2018-03-27T05:41:44.865Z,42.87
2018-03-27T05:44:12.980Z,46.63
2018-03-27T05:46:41.240Z,43.47
2018-03-27T05:49:10.278Z,47.97
2018-03-27T05:51:38.504Z,46.17
2018-03-27T05:54:07.464Z,47.73
2018-03-27T05:56:35.588Z,49.23
2018-03-27T05:59:03.878Z,43.87
2018-03-27T06:01:32.064Z,43.43
2018-03-27T06:04:00.232Z,44.33
2018-03-27T06:06:28.885Z,41.00
2018-03-27T06:08:57.052Z,45.27
2018-03-27T06:11:25.511Z,49.50
2018-03-27T06:13:54.984Z,48.23
2018-03-27T06:16:23.180Z,52.93
2018-03-27T06:18:51.570Z,48.03
2018-03-27T06:21:20.435Z,52.37
2018-03-27T06:23:48.603Z,45.30
2018-03-27T06:26:17.370Z,46.73
2018-03-27T06:28:45.516Z,43.33
2018-03-27T06:31:13.730Z,46.40
2018-03-27T06:33:41.951Z,41.63
2018-03-27T06:36:10.108Z,43.27
2018-03-27T06:38:38.222Z,43.50
2018-03-27T06:41:06.505Z,40.93
2018-03-27T06:43:34.728Z,43.47
2018-03-27T06:46:03.072Z,41.50
2018-03-27T06:48:31.253Z,39.63
2018-03-27T06:50:59.530Z,42.63
2018-03-27T06:53:27.661Z,46.70
2018-03-27T06:55:55.781Z,52.33
2018-03-27T06:58:23.895Z,49.73
2018-03-27T07:00:52.034Z,45.13
2018-03-27T07:03:20.185Z,51.80
2018-03-27T07:05:48.372Z,51.03
2018-03-27T07:08:16.475Z,47.57
2018-03-27T07:10:44.720Z,43.77
2018-03-27T07:13:13.193Z,48.20
2018-03-27T07:15:41.295Z,51.57
2018-03-27T07:18:09.440Z,56.20
2018-03-27T07:20:37.559Z,58.87
2018-03-27T07:23:05.690Z,62.87
2018-03-27T07:25:33.825Z,62.00
2018-03-27T07:28:01.939Z,59.60
2018-03-27T07:30:30.079Z,57.80
2018-03-27T07:32:58.208Z,56.80
2018-03-27T07:35:27.148Z,56.77
2018-03-27T07:37:55.245Z,54.40
2018-03-27T07:40:23.465Z,56.20
2018-03-27T07:42:52.339Z,55.07
2018-03-27T07:45:20.475Z,50.60
2018-03-27T07:47:48.573Z,51.37
2018-03-27T07:50:16.680Z,56.23
2018-03-27T07:52:44.802Z,66.80
2018-03-27T07:55:12.985Z,70.60
2018-03-27T07:57:41.184Z,58.40
2018-03-27T08:00:10.094Z,55.50
2018-03-27T08:02:38.210Z,49.03
2018-03-27T08:05:06.338Z,47.30
2018-03-27T08:07:34.456Z,45.40
2018-03-27T08:10:02.583Z,49.10
2018-03-27T08:12:30.702Z,47.00
2018-03-27T08:14:58.920Z,49.23
2018-03-27T08:17:27.062Z,47.77
2018-03-27T08:19:55.305Z,46.73
2018-03-27T08:22:23.400Z,44.90
2018-03-27T08:24:51.518Z,42.00
2018-03-27T08:27:19.615Z,44.70
2018-03-27T08:29:47.720Z,39.57
2018-03-27T08:32:15.834Z,43.20
2018-03-27T08:34:44.009Z,41.13
2018-03-27T08:37:12.135Z,40.83
2018-03-27T08:39:40.240Z,36.30
2018-03-27T08:42:08.373Z,36.73
2018-03-27T08:44:36.973Z,35.90
2018-03-27T08:47:05.121Z,41.00
2018-03-27T08:49:33.550Z,36.30
2018-03-27T08:52:02.439Z,43.03
2018-03-27T08:54:30.588Z,37.43
2018-03-27T08:56:58.730Z,40.43
2018-03-27T08:59:26.879Z,38.67
2018-03-27T09:01:54.992Z,35.50
2018-03-27T09:04:23.108Z,36.67
2018-03-27T09:06:51.225Z,34.80
2018-03-27T09:09:19.320Z,34.20
2018-03-27T09:11:47.468Z,32.47
2018-03-27T09:14:15.569Z,36.17
2018-03-27T09:16:43.689Z,33.93
2018-03-27T09:19:11.811Z,32.17
2018-03-27T09:21:39.912Z,33.67
2018-03-27T09:24:08.784Z,24.43
2018-03-27T09:26:36.894Z,31.47
2018-03-27T09:29:05.013Z,29.67
2018-03-27T09:31:33.144Z,31.93
2018-03-27T09:34:01.262Z,28.80
2018-03-27T09:36:29.374Z,28.07
2018-03-27T09:38:57.523Z,28.80
2018-03-27T09:41:25.688Z,28.73
2018-03-27T09:43:53.886Z,28.97
2018-03-27T09:46:22.120Z,30.00
2018-03-27T09:48:50.354Z,30.77
2018-03-27T09:51:18.605Z,28.43
2018-03-27T09:53:46.819Z,30.67
2018-03-27T09:56:14.963Z,29.63
2018-03-27T09:58:43.849Z,27.60
2018-03-27T10:01:11.972Z,26.93
2018-03-27T10:03:40.105Z,27.80
2018-03-27T10:06:08.218Z,25.67
2018-03-27T10:08:36.347Z,22.27
2018-03-27T10:11:05.241Z,26.20
2018-03-27T10:13:35.684Z,24.97
2018-03-27T10:16:10.492Z,22.50
2018-03-27T10:18:40.568Z,22.10
2018-03-27T10:21:09.510Z,24.80
2018-03-27T10:23:38.481Z,23.77
2018-03-27T10:26:13.491Z,25.03
2018-03-27T10:28:46.612Z,24.83
2018-03-27T10:31:19.232Z,25.00
2018-03-27T10:33:52.003Z,23.60
2018-03-27T10:36:31.571Z,24.33
2018-03-27T10:39:12.945Z,21.03
2018-03-27T10:41:43.116Z,18.03
2018-03-27T10:44:15.996Z,19.20
2018-03-27T10:46:49.622Z,18.07
2018-03-27T10:49:24.852Z,19.47
2018-03-27T10:51:57.810Z,17.57
2018-03-27T10:54:29.218Z,17.13
2018-03-27T10:56:57.878Z,15.37
2018-03-27T10:59:26.551Z,16.00
2018-03-27T11:01:56.027Z,16.67
2018-03-27T11:04:27.577Z,17.57
2018-03-27T11:06:58.893Z,18.10
2018-03-27T11:09:28.267Z,18.53
2018-03-27T11:11:58.083Z,17.93
2018-03-27T11:14:29.299Z,17.17
2018-03-27T11:16:59.533Z,17.10
2018-03-27T11:19:33.032Z,16.87
2018-03-27T11:22:03.743Z,17.67
2018-03-27T11:24:38.899Z,16.77
2018-03-27T11:27:11.379Z,16.43
2018-03-27T11:29:43.638Z,17.37
2018-03-27T11:32:13.387Z,17.57
2018-03-27T11:34:47.451Z,17.43
2018-03-27T11:37:19.707Z,16.80
2018-03-27T11:39:58.460Z,17.27
2018-03-27T11:42:33.201Z,17.07
2018-03-27T11:45:14.053Z,18.03
2018-03-27T11:47:47.238Z,17.63
2018-03-27T11:50:20.491Z,16.93
2018-03-27T11:52:54.686Z,16.97
2018-03-27T11:55:27.083Z,17.93
2018-03-27T11:57:58.554Z,14.37
2018-03-27T12:00:29.450Z,13.27
2018-03-27T12:02:59.044Z,13.53
2018-03-27T12:05:29.408Z,13.93
2018-03-27T12:08:02.795Z,13.07
2018-03-27T12:10:35.038Z,13.93
2018-03-27T12:13:13.786Z,14.23
2018-03-27T12:15:58.283Z,13.67
2018-03-27T12:18:26.707Z,15.03
2018-03-27T12:20:59.160Z,14.80
2018-03-27T12:23:28.587Z,14.03
2018-03-27T12:25:56.725Z,14.50
2018-03-27T12:28:25.597Z,15.87
2018-03-27T12:30:54.611Z,13.50
2018-03-27T12:33:22.760Z,13.47
2018-03-27T12:35:51.281Z,14.30
2018-03-27T12:38:19.441Z,14.03
2018-03-27T12:40:47.587Z,14.67
2018-03-27T12:43:15.715Z,12.83
2018-03-27T12:45:43.835Z,12.53
2018-03-27T12:48:13.332Z,12.77
2018-03-27T12:50:41.504Z,12.97
2018-03-27T12:53:09.659Z,12.23
2018-03-27T12:55:38.115Z,10.50
2018-03-27T12:58:06.265Z,11.37
2018-03-27T13:00:34.400Z,12.27
2018-03-27T13:03:03.038Z,11.43
2018-03-27T13:05:31.247Z,12.03
2018-03-27T13:07:59.631Z,11.50
2018-03-27T13:10:28.099Z,11.63
2018-03-27T13:12:56.789Z,10.83
2018-03-27T13:15:24.897Z,11.27
2018-03-27T13:17:53.034Z,11.43
2018-03-27T13:20:21.875Z,11.50
2018-03-27T13:22:50.094Z,12.80
2018-03-27T13:25:18.580Z,12.00
2018-03-27T13:27:46.971Z,12.43
2018-03-27T13:30:15.433Z,12.80
2018-03-27T13:32:43.556Z,12.23
2018-03-27T13:35:11.954Z,12.27
2018-03-27T13:37:40.454Z,12.23
2018-03-27T13:40:08.656Z,13.73
2018-03-27T13:42:36.788Z,15.97
2018-03-27T13:45:04.919Z,16.13
2018-03-27T13:47:33.055Z,14.57
2018-03-27T13:50:01.204Z,15.67
2018-03-27T13:52:29.372Z,15.17
2018-03-27T13:54:57.740Z,16.23
2018-03-27T13:57:25.929Z,18.57
2018-03-27T13:59:54.042Z,15.97
2018-03-27T14:02:22.182Z,16.20
2018-03-27T14:04:50.358Z,13.90
2018-03-27T14:07:18.528Z,14.63
2018-03-27T14:09:46.698Z,14.30
2018-03-27T14:12:14.798Z,13.77
2018-03-27T14:14:42.934Z,13.57
2018-03-27T14:17:11.807Z,13.90
2018-03-27T14:19:40.006Z,14.17
2018-03-27T14:22:08.116Z,12.83
2018-03-27T14:24:36.265Z,13.30
2018-03-27T14:27:04.455Z,13.83
2018-03-27T14:29:32.578Z,13.77
2018-03-27T14:32:01.816Z,14.23
2018-03-27T14:34:30.747Z,14.07
2018-03-27T14:36:58.909Z,14.23
2018-03-27T14:39:27.014Z,13.60
2018-03-27T14:41:55.141Z,13.43
2018-03-27T14:44:23.275Z,13.73
2018-03-27T14:46:51.398Z,14.17
2018-03-27T14:49:19.636Z,14.07
2018-03-27T14:51:47.814Z,13.27
2018-03-27T14:54:15.947Z,13.20
2018-03-27T14:56:44.192Z,13.63
2018-03-27T14:59:12.494Z,13.50
2018-03-27T15:01:40.711Z,13.67
2018-03-27T15:04:08.811Z,12.83
2018-03-27T15:06:36.956Z,12.77
2018-03-27T15:09:05.060Z,13.57
2018-03-27T15:11:33.210Z,11.83
2018-03-27T15:14:01.356Z,13.20
2018-03-27T15:16:30.549Z,13.17
2018-03-27T15:18:58.674Z,13.30
2018-03-27T15:21:26.788Z,13.93
2018-03-27T15:23:55.684Z,13.90
2018-03-27T15:26:24.572Z,13.13
2018-03-27T15:28:53.467Z,13.03
2018-03-27T15:31:22.198Z,13.23
2018-03-27T15:33:51.118Z,13.10
2018-03-27T15:36:19.256Z,12.90
2018-03-27T15:38:47.402Z,12.83
2018-03-27T15:41:15.522Z,13.17
2018-03-27T15:43:43.853Z,13.03
2018-03-27T15:46:12.000Z,13.27
2018-03-27T15:48:41.594Z,12.07
2018-03-27T15:51:10.856Z,14.07
2018-03-27T15:53:39.064Z,14.03
2018-03-27T15:56:07.223Z,13.77
2018-03-27T15:58:35.343Z,13.97
2018-03-27T16:01:03.475Z,14.67
2018-03-27T16:03:31.642Z,13.13
2018-03-27T16:05:59.760Z,13.33
2018-03-27T16:08:27.970Z,13.53
2018-03-27T16:10:56.074Z,13.30
2018-03-27T16:13:24.183Z,14.30
2018-03-27T16:15:52.415Z,14.60
2018-03-27T16:18:20.768Z,13.77
2018-03-27T16:20:48.893Z,14.80
2018-03-27T16:23:17.066Z,14.17
2018-03-27T16:25:45.224Z,13.43
2018-03-27T16:28:13.344Z,14.27
2018-03-27T16:30:41.472Z,14.03
2018-03-27T16:33:09.692Z,13.60
2018-03-27T16:35:37.816Z,13.27
2018-03-27T16:38:05.950Z,13.43
2018-03-27T16:40:34.096Z,13.77
2018-03-27T16:43:04.338Z,13.60
2018-03-27T16:45:32.578Z,13.73
2018-03-27T16:48:00.909Z,14.00
2018-03-27T16:50:29.103Z,13.47
2018-03-27T16:52:57.206Z,12.93
2018-03-27T16:55:25.477Z,14.57
2018-03-27T16:57:53.628Z,14.33
2018-03-27T17:00:21.846Z,13.53
2018-03-27T17:02:49.985Z,14.67
2018-03-27T17:05:18.127Z,15.27
2018-03-27T17:07:46.381Z,15.00
2018-03-27T17:10:14.517Z,15.07
2018-03-27T17:12:42.639Z,12.47
2018-03-27T17:15:10.847Z,12.03
2018-03-27T17:17:38.957Z,11.03
2018-03-27T17:20:07.067Z,12.60
2018-03-27T17:22:35.207Z,12.80
2018-03-27T17:25:03.410Z,12.73
2018-03-27T17:27:31.752Z,13.70
2018-03-27T17:30:01.880Z,13.27
2018-03-27T17:32:30.106Z,12.10
2018-03-27T17:34:58.314Z,12.57
2018-03-27T17:37:26.896Z,12.10
2018-03-27T17:39:55.766Z,13.10
2018-03-27T17:42:23.894Z,12.97
2018-03-27T17:44:52.060Z,12.63
2018-03-27T17:47:20.152Z,12.97
2018-03-27T17:49:48.270Z,14.37
2018-03-27T17:52:17.148Z,13.80
2018-03-27T17:54:45.367Z,13.93
2018-03-27T17:57:13.538Z,12.03
2018-03-27T17:59:41.923Z,13.80
2018-03-27T18:02:10.040Z,13.97
2018-03-27T18:04:38.266Z,13.63
2018-03-27T18:07:06.441Z,12.60
2018-03-27T18:09:34.609Z,12.80
2018-03-27T18:12:02.714Z,12.83
2018-03-27T18:14:30.868Z,12.97
2018-03-27T18:16:59.502Z,13.87
2018-03-27T18:19:27.756Z,12.87
2018-03-27T18:21:55.914Z,13.97
2018-03-27T18:24:24.024Z,14.53
2018-03-27T18:26:52.575Z,13.73
2018-03-27T18:29:20.807Z,13.77
2018-03-27T18:31:49.018Z,14.00
2018-03-27T18:34:28.648Z,13.13
2018-03-27T18:36:56.785Z,14.67
2018-03-27T18:39:24.946Z,14.70
2018-03-27T18:41:53.196Z,14.70
2018-03-27T18:44:22.516Z,16.13
2018-03-27T18:46:51.314Z,15.90
2018-03-27T18:49:20.326Z,16.77
2018-03-27T18:51:48.594Z,16.43
2018-03-27T18:54:16.867Z,18.07
2018-03-27T18:56:46.017Z,16.07
2018-03-27T18:59:18.637Z,17.47
2018-03-27T19:01:46.775Z,17.47
2018-03-27T19:04:15.793Z,17.73
2018-03-27T19:06:45.006Z,16.90
2018-03-27T19:09:13.354Z,16.20
2018-03-27T19:11:41.727Z,17.00
2018-03-27T19:14:11.031Z,17.87
2018-03-27T19:16:40.222Z,17.37
2018-03-27T19:19:08.749Z,16.73
2018-03-27T19:34:27.216Z,13.60
2018-03-27T19:36:55.348Z,16.93
2018-03-27T19:39:24.310Z,16.33
2018-03-27T19:41:52.492Z,19.37
2018-03-27T19:44:20.759Z,18.67
2018-03-27T19:46:49.511Z,19.33
2018-03-27T19:49:19.261Z,23.70
2018-03-27T19:51:47.383Z,18.50
2018-03-27T19:54:16.007Z,24.17
2018-03-27T19:56:47.056Z,19.73
2018-03-27T19:59:17.641Z,18.30
2018-03-27T20:01:45.801Z,17.93
2018-03-27T20:04:18.716Z,18.87
2018-03-27T20:06:47.003Z,18.30
2018-03-27T20:09:15.107Z,18.63
2018-03-27T20:11:43.485Z,18.53
2018-03-27T20:14:11.651Z,17.70
2018-03-27T20:16:39.841Z,18.17
2018-03-27T20:19:08.931Z,17.50
2018-03-27T20:21:38.304Z,16.77
2018-03-27T20:24:12.851Z,16.93
2018-03-27T20:26:41.052Z,16.77
2018-03-27T20:29:13.277Z,16.97
2018-03-27T20:31:44.972Z,15.97
2018-03-27T20:34:17.656Z,17.70
2018-03-27T20:36:45.888Z,17.27
2018-03-27T20:39:14.886Z,17.00
2018-03-27T20:41:43.207Z,17.53
2018-03-27T20:44:11.357Z,16.73
2018-03-27T20:46:39.510Z,16.80
2018-03-27T20:49:07.880Z,17.33
2018-03-27T20:51:52.862Z,15.20
2018-03-27T20:54:21.184Z,14.90
2018-03-27T20:56:49.328Z,14.40
2018-03-27T20:59:18.814Z,15.57
2018-03-27T21:01:47.351Z,13.60
2018-03-27T21:04:34.449Z,13.90
2018-03-27T21:07:02.708Z,13.90
2018-03-27T21:09:30.908Z,13.47
2018-03-27T21:11:59.130Z,14.73
2018-03-27T21:14:31.908Z,15.20
2018-03-27T21:17:01.513Z,14.37
2018-03-27T21:19:29.668Z,13.90
2018-03-27T21:22:09.618Z,15.17
2018-03-27T21:24:42.057Z,14.53
2018-03-27T21:27:11.067Z,13.70
2018-03-27T21:29:39.233Z,14.77
2018-03-27T21:32:08.115Z,14.10
2018-03-27T21:34:36.685Z,14.90
2018-03-27T21:37:04.873Z,14.00
2018-03-27T21:39:33.937Z,14.47
2018-03-27T21:42:02.159Z,14.57
2018-03-27T21:44:31.853Z,14.27
2018-03-27T21:47:00.101Z,13.90
2018-03-27T21:49:28.431Z,13.90
2018-03-27T21:51:56.641Z,14.17
2018-03-27T21:54:29.486Z,13.07
2018-03-27T21:56:57.610Z,12.50
2018-03-27T21:59:25.855Z,12.20
2018-03-27T22:01:55.022Z,11.57
2018-03-27T22:04:23.222Z,11.90
2018-03-27T22:07:00.758Z,11.90
2018-03-27T22:09:29.130Z,12.07
2018-03-27T22:11:58.692Z,11.87
2018-03-27T22:14:31.879Z,11.50
2018-03-27T22:17:06.902Z,10.37
2018-03-27T22:19:51.276Z,10.77
2018-03-27T22:22:19.397Z,10.13
2018-03-27T22:24:47.499Z,9.47
2018-03-27T22:27:16.397Z,10.63
2018-03-27T22:29:45.245Z,9.40
2018-03-27T22:32:17.787Z,10.23
2018-03-27T22:34:45.964Z,10.00
2018-03-27T22:37:14.070Z,9.87
2018-03-27T22:39:42.301Z,10.80
2018-03-27T22:55:05.429Z,9.53
2018-03-27T22:57:34.191Z,10.43
2018-03-27T23:00:11.195Z,12.13
2018-03-27T23:02:43.309Z,11.70
2018-03-27T23:05:11.770Z,10.00
2018-03-27T23:07:40.473Z,12.00
2018-03-27T23:10:08.827Z,11.37
2018-03-27T23:12:37.584Z,11.30
2018-03-27T23:15:06.466Z,12.97
2018-03-27T23:17:34.599Z,13.63
2018-03-27T23:20:03.760Z,12.13
2018-03-27T23:22:32.721Z,12.27
2018-03-27T23:25:00.902Z,12.93
2018-03-27T23:27:29.054Z,11.97
2018-03-27T23:30:01.104Z,11.93
2018-03-27T23:32:29.251Z,13.97
2018-03-27T23:34:58.124Z,14.87
2018-03-27T23:37:30.765Z,13.90
2018-03-27T23:39:58.896Z,14.60
2018-03-27T23:42:27.741Z,14.23
2018-03-27T23:44:57.766Z,12.43
2018-03-27T23:47:25.871Z,12.53
2018-03-27T23:49:54.605Z,13.50
2018-03-27T23:52:23.404Z,12.27
2018-03-27T23:54:51.533Z,14.23
2018-03-27T23:57:19.704Z,11.37
2018-03-27T23:59:47.801Z,13.87
